createdAt,value
2017-08-05T00:00:09.767Z,49.1
2017-08-05T00:01:11.563Z,49.1
2017-08-05T00:02:13.693Z,49.1
2017-08-05T00:03:15.494Z,49.1
2017-08-05T00:04:17.622Z,49.1
2017-08-05T00:05:19.422Z,49.7
2017-08-05T00:06:21.273Z,49.2
2017-08-05T00:07:23.403Z,49.8
2017-08-05T00:08:24.848Z,49.1
2017-08-05T00:09:26.979Z,49.3
2017-08-05T00:10:29.110Z,49.2
2017-08-05T00:11:30.581Z,49.2
2017-08-05T00:12:32.355Z,49.1
2017-08-05T00:13:33.838Z,49.2
2017-08-05T00:14:35.640Z,49.5
2017-08-05T00:15:37.105Z,49.5
2017-08-05T00:16:39.237Z,49.1
2017-08-05T00:17:41.366Z,49.1
2017-08-05T00:18:43.497Z,49.3
2017-08-05T00:19:45.627Z,49.2
2017-08-05T00:20:47.432Z,49.6
2017-08-05T00:21:48.543Z,49.4
2017-08-05T00:22:50.343Z,49
2017-08-05T00:23:52.474Z,49.6
2017-08-05T00:24:54.271Z,49.4
2017-08-05T00:25:56.404Z,49.3
2017-08-05T00:26:58.206Z,49.5
2017-08-05T00:28:00.337Z,49.7
2017-08-05T00:29:02.467Z,49.4
2017-08-05T00:30:04.266Z,49.1
2017-08-05T00:31:06.043Z,49
2017-08-05T00:32:07.842Z,49.7
2017-08-05T00:33:10.041Z,49.1
2017-08-05T00:34:12.171Z,49.7
2017-08-05T00:35:14.303Z,49
2017-08-05T00:36:15.769Z,49.2
2017-08-05T00:37:17.901Z,49.1
2017-08-05T00:38:20.033Z,49.2
2017-08-05T00:39:21.832Z,49.4
2017-08-05T00:40:23.965Z,49
2017-08-05T00:41:25.765Z,49.4
2017-08-05T00:42:27.566Z,49
2017-08-05T00:43:28.713Z,49
2017-08-05T00:44:29.848Z,49.2
2017-08-05T00:45:31.649Z,49
2017-08-05T00:46:33.779Z,49
2017-08-05T00:47:35.581Z,49.1
2017-08-05T00:48:37.382Z,49.5
2017-08-05T00:49:39.509Z,49.3
2017-08-05T00:50:41.307Z,49.1
2017-08-05T00:51:43.440Z,48.9
2017-08-05T00:52:45.216Z,49
2017-08-05T00:53:46.661Z,48.9
2017-08-05T00:54:48.437Z,48.9
2017-08-05T00:55:50.214Z,49
2017-08-05T00:56:52.009Z,49.3
2017-08-05T00:57:53.479Z,49.8
2017-08-05T00:58:55.610Z,49.5
2017-08-05T00:59:57.742Z,49
2017-08-05T01:00:59.901Z,48.9
2017-08-05T01:02:02.033Z,49
2017-08-05T01:03:03.808Z,49.1
2017-08-05T01:04:05.938Z,49
2017-08-05T01:05:08.069Z,49
2017-08-05T01:06:09.514Z,49.5
2017-08-05T01:07:11.648Z,49
2017-08-05T01:08:13.778Z,49
2017-08-05T01:09:15.910Z,49
2017-08-05T01:10:18.040Z,49.3
2017-08-05T01:11:20.170Z,49.4
2017-08-05T01:12:22.299Z,49.3
2017-08-05T01:13:24.428Z,49.5
2017-08-05T01:14:26.557Z,49.5
2017-08-05T01:15:28.356Z,49.4
2017-08-05T01:16:29.820Z,49.5
2017-08-05T01:17:31.618Z,49.4
2017-08-05T01:18:33.749Z,49.5
2017-08-05T01:19:35.546Z,49.6
2017-08-05T01:20:37.340Z,49.4
2017-08-05T01:21:38.785Z,49.1
2017-08-05T01:22:40.919Z,49.3
2017-08-05T01:23:42.722Z,49.4
2017-08-05T01:24:44.850Z,49.3
2017-08-05T01:25:46.981Z,49.4
2017-08-05T01:26:49.112Z,49.3
2017-08-05T01:27:50.581Z,49.4
2017-08-05T01:28:52.712Z,49.3
2017-08-05T01:29:54.840Z,49.4
2017-08-05T01:30:56.970Z,49.5
2017-08-05T01:31:58.767Z,49.3
2017-08-05T01:33:00.563Z,49.3
2017-08-05T01:34:02.694Z,49.2
2017-08-05T01:35:04.828Z,49.3
2017-08-05T01:36:06.954Z,49.3
2017-08-05T01:37:08.400Z,49.2
2017-08-05T01:38:10.198Z,49.3
2017-08-05T01:39:12.332Z,49.4
2017-08-05T01:40:14.460Z,49.3
2017-08-05T01:41:16.260Z,49.4
2017-08-05T01:42:18.040Z,49.3
2017-08-05T01:43:20.173Z,49.3
2017-08-05T01:44:21.976Z,49.6
2017-08-05T01:45:23.778Z,49.3
2017-08-05T01:46:25.908Z,49.3
2017-08-05T01:47:28.035Z,49.4
2017-08-05T01:48:29.501Z,49.3
2017-08-05T01:49:31.304Z,49.2
2017-08-05T01:50:33.099Z,49.6
2017-08-05T01:51:34.896Z,49.2
2017-08-05T01:52:36.696Z,49.3
2017-08-05T01:53:38.470Z,49.5
2017-08-05T01:54:40.271Z,49.1
2017-08-05T01:55:42.403Z,49.2
2017-08-05T01:56:44.206Z,49.3
2017-08-05T01:57:46.005Z,49.4
2017-08-05T01:58:47.778Z,49.5
2017-08-05T01:59:49.556Z,49.2
2017-08-05T02:00:51.332Z,49.2
2017-08-05T02:01:53.483Z,49.2
2017-08-05T02:02:55.616Z,49.5
2017-08-05T02:03:57.746Z,49.1
2017-08-05T02:04:59.194Z,49.3
2017-08-05T02:06:00.971Z,49.2
2017-08-05T02:07:03.102Z,49.2
2017-08-05T02:08:05.247Z,49.2
2017-08-05T02:09:07.055Z,49.2
2017-08-05T02:10:08.521Z,49.4
2017-08-05T02:11:10.318Z,49.2
2017-08-05T02:12:12.448Z,49.4
2017-08-05T02:13:14.222Z,49.5
2017-08-05T02:14:16.358Z,49.2
2017-08-05T02:15:18.133Z,49.2
2017-08-05T02:16:19.934Z,49.4
2017-08-05T02:17:22.065Z,49.3
2017-08-05T02:18:24.195Z,49.4
2017-08-05T02:19:26.328Z,49.2
2017-08-05T02:20:28.459Z,50.1
2017-08-05T02:21:30.261Z,49.2
2017-08-05T02:22:32.052Z,49.4
2017-08-05T02:23:34.182Z,49.6
2017-08-05T02:24:35.983Z,49.6
2017-08-05T02:25:37.426Z,49.2
2017-08-05T02:26:39.557Z,49.8
2017-08-05T02:27:41.687Z,49.5
2017-08-05T02:28:43.830Z,49.5
2017-08-05T02:29:45.948Z,49.1
2017-08-05T02:30:47.745Z,49.6
2017-08-05T02:31:49.879Z,49.1
2017-08-05T02:32:51.748Z,49.6
2017-08-05T02:33:53.192Z,49.4
2017-08-05T02:34:55.323Z,49.5
2017-08-05T02:35:57.454Z,49.2
2017-08-05T02:36:59.232Z,49.4
2017-08-05T02:38:01.377Z,49.9
2017-08-05T02:39:03.497Z,49.6
2017-08-05T02:40:05.653Z,49.1
2017-08-05T02:41:07.456Z,49
2017-08-05T02:42:08.913Z,49.3
2017-08-05T02:43:11.045Z,49.3
2017-08-05T02:44:12.843Z,49.9
2017-08-05T02:45:14.646Z,49.9
2017-08-05T02:46:16.096Z,49.4
2017-08-05T02:47:18.273Z,49.8
2017-08-05T02:48:20.059Z,49
2017-08-05T02:49:21.856Z,49
2017-08-05T02:50:23.986Z,49.1
2017-08-05T02:51:26.139Z,49
2017-08-05T02:52:28.269Z,49.4
2017-08-05T02:53:30.075Z,49.1
2017-08-05T02:54:32.208Z,49.1
2017-08-05T02:55:34.009Z,49.3
2017-08-05T02:56:36.140Z,49.4
2017-08-05T02:57:38.271Z,49.5
2017-08-05T02:58:40.402Z,49.5
2017-08-05T02:59:42.535Z,49.5
2017-08-05T03:00:44.665Z,49.9
2017-08-05T03:01:46.797Z,49.5
2017-08-05T03:02:48.239Z,49.5
2017-08-05T03:03:50.373Z,49.5
2017-08-05T03:04:52.177Z,49.8
2017-08-05T03:05:54.375Z,49.9
2017-08-05T03:06:56.158Z,49.7
2017-08-05T03:07:57.964Z,49.6
2017-08-05T03:09:00.096Z,49.9
2017-08-05T03:10:01.919Z,49.6
2017-08-05T03:11:03.373Z,49.9
2017-08-05T03:12:05.503Z,49.7
2017-08-05T03:13:06.945Z,49.6
2017-08-05T03:14:08.744Z,49.4
2017-08-05T03:15:10.543Z,49.8
2017-08-05T03:16:12.341Z,49.8
2017-08-05T03:17:14.471Z,50.1
2017-08-05T03:18:16.601Z,49.7
2017-08-05T03:19:18.740Z,49.7
2017-08-05T03:20:20.861Z,49.7
2017-08-05T03:21:22.662Z,49.8
2017-08-05T03:22:24.798Z,49.5
2017-08-05T03:23:26.245Z,49.7
2017-08-05T03:24:28.372Z,49.7
2017-08-05T03:25:30.503Z,49.5
2017-08-05T03:26:32.634Z,49.4
2017-08-05T03:27:34.764Z,49.4
2017-08-05T03:28:36.895Z,49.5
2017-08-05T03:29:38.359Z,49.6
2017-08-05T03:30:39.825Z,49.8
2017-08-05T03:31:41.956Z,49.3
2017-08-05T03:32:43.751Z,49.4
2017-08-05T03:33:45.917Z,49.4
2017-08-05T03:34:47.717Z,49.6
2017-08-05T03:35:49.847Z,49.8
2017-08-05T03:36:51.977Z,49.6
2017-08-05T03:37:53.778Z,49.4
2017-08-05T03:38:55.578Z,49.4
2017-08-05T03:39:57.708Z,49.7
2017-08-05T03:40:59.180Z,49.5
2017-08-05T03:42:00.973Z,49.5
2017-08-05T03:43:03.102Z,49.8
2017-08-05T03:44:05.233Z,49.4
2017-08-05T03:45:07.363Z,49.5
2017-08-05T03:46:09.164Z,49.5
2017-08-05T03:47:10.967Z,49.5
2017-08-05T03:48:13.098Z,49.5
2017-08-05T03:49:15.229Z,49.5
2017-08-05T03:50:17.360Z,49.5
2017-08-05T03:51:19.155Z,49.6
2017-08-05T03:52:20.602Z,49.4
2017-08-05T03:53:22.047Z,49.6
2017-08-05T03:54:24.180Z,49.5
2017-08-05T03:55:26.311Z,49.6
2017-08-05T03:56:28.440Z,49.6
2017-08-05T03:57:30.240Z,49.5
2017-08-05T03:58:32.377Z,49.4
2017-08-05T03:59:34.176Z,49.6
2017-08-05T04:00:35.979Z,49.8
2017-08-05T04:01:37.425Z,49.7
2017-08-05T04:02:39.559Z,49.6
2017-08-05T04:03:41.338Z,49.7
2017-08-05T04:04:43.474Z,49.7
2017-08-05T04:05:45.268Z,49.6
2017-08-05T04:06:46.717Z,49.6
2017-08-05T04:07:48.187Z,49.6
2017-08-05T04:08:49.991Z,49.9
2017-08-05T04:09:52.124Z,49.7
2017-08-05T04:10:53.903Z,49.7
2017-08-05T04:11:55.356Z,50
2017-08-05T04:12:57.138Z,49.6
2017-08-05T04:13:58.600Z,49.7
2017-08-05T04:15:00.397Z,49.7
2017-08-05T04:16:01.869Z,49.7
2017-08-05T04:17:03.669Z,50
2017-08-05T04:18:05.801Z,50
2017-08-05T04:19:07.242Z,49.9
2017-08-05T04:20:09.039Z,49.5
2017-08-05T04:21:10.162Z,49.7
2017-08-05T04:22:12.293Z,49.7
2017-08-05T04:23:14.420Z,49.6
2017-08-05T04:24:16.555Z,50
2017-08-05T04:25:18.691Z,50
2017-08-05T04:26:20.491Z,49.8
2017-08-05T04:27:22.618Z,49.8
2017-08-05T04:28:24.756Z,49.8
2017-08-05T04:29:26.202Z,49.8
2017-08-05T04:30:27.975Z,49.7
2017-08-05T04:31:29.783Z,50
2017-08-05T04:32:31.577Z,49.8
2017-08-05T04:33:33.378Z,49.7
2017-08-05T04:34:35.155Z,49.7
2017-08-05T04:35:37.288Z,49.9
2017-08-05T04:36:39.110Z,49.8
2017-08-05T04:37:40.886Z,50
2017-08-05T04:38:43.019Z,49.7
2017-08-05T04:39:45.150Z,50
2017-08-05T04:40:46.593Z,50.1
2017-08-05T04:41:48.392Z,50.1
2017-08-05T04:42:50.525Z,49.9
2017-08-05T04:43:51.993Z,50
2017-08-05T04:44:53.791Z,50.1
2017-08-05T04:45:55.592Z,49.8
2017-08-05T04:46:57.725Z,50.2
2017-08-05T04:47:59.856Z,50.1
2017-08-05T04:49:01.630Z,49.9
2017-08-05T04:50:03.762Z,50.1
2017-08-05T04:51:05.895Z,49.9
2017-08-05T04:52:08.026Z,50.1
2017-08-05T04:53:10.155Z,49.9
2017-08-05T04:54:11.932Z,50
2017-08-05T04:55:14.067Z,50
2017-08-05T04:56:15.199Z,50.2
2017-08-05T04:57:16.985Z,49.9
2017-08-05T04:58:18.782Z,50.3
2017-08-05T04:59:20.580Z,50.3
2017-08-05T05:00:22.712Z,50.1
2017-08-05T05:01:24.512Z,50.3
2017-08-05T05:02:25.965Z,50.1
2017-08-05T05:03:28.095Z,50.2
2017-08-05T05:04:29.897Z,49.9
2017-08-05T05:05:31.695Z,49.8
2017-08-05T05:06:33.494Z,50.2
2017-08-05T05:07:35.625Z,50
2017-08-05T05:08:37.420Z,49.8
2017-08-05T05:09:39.218Z,49.7
2017-08-05T05:10:41.020Z,49.8
2017-08-05T05:11:42.469Z,49.7
2017-08-05T05:12:44.602Z,49.9
2017-08-05T05:13:46.408Z,49.8
2017-08-05T05:14:48.207Z,49.9
2017-08-05T05:15:50.342Z,49.6
2017-08-05T05:16:51.810Z,49.6
2017-08-05T05:17:53.613Z,49.1
2017-08-05T05:18:55.753Z,49.3
2017-08-05T05:19:57.525Z,49.6
2017-08-05T05:20:59.323Z,49
2017-08-05T05:22:01.126Z,49.5
2017-08-05T05:23:03.259Z,49.6
2017-08-05T05:24:05.044Z,49.3
2017-08-05T05:25:07.182Z,49.4
2017-08-05T05:26:08.978Z,49.3
2017-08-05T05:27:10.756Z,49.3
2017-08-05T05:28:12.892Z,49.2
2017-08-05T05:29:14.693Z,49
2017-08-05T05:30:16.491Z,48.8
2017-08-05T05:31:18.295Z,48.7
2017-08-05T05:32:20.429Z,48.5
2017-08-05T05:33:21.542Z,48.9
2017-08-05T05:34:23.012Z,48.7
2017-08-05T05:35:24.813Z,48.8
2017-08-05T05:36:26.944Z,48.4
2017-08-05T05:37:29.132Z,48.7
2017-08-05T05:38:30.600Z,48.8
2017-08-05T05:39:32.733Z,49.1
2017-08-05T05:40:34.866Z,49
2017-08-05T05:41:36.670Z,49.2
2017-08-05T05:42:38.138Z,49.1
2017-08-05T05:43:40.274Z,49.4
2017-08-05T05:44:42.408Z,49
2017-08-05T05:45:43.874Z,49
2017-08-05T05:46:45.341Z,49.3
2017-08-05T05:47:47.143Z,49.3
2017-08-05T05:48:49.274Z,49.3
2017-08-05T05:49:51.403Z,49.2
2017-08-05T05:50:53.533Z,49.3
2017-08-05T05:51:55.319Z,49.5
2017-08-05T05:52:57.097Z,49.3
2017-08-05T05:53:58.896Z,49.1
2017-08-05T05:55:00.675Z,49.2
2017-08-05T05:56:02.480Z,49.4
2017-08-05T05:57:03.930Z,49.3
2017-08-05T05:58:05.728Z,50
2017-08-05T05:59:06.518Z,49.1
2017-08-05T06:00:07.986Z,49.3
2017-08-05T06:01:09.785Z,49.4
2017-08-05T06:02:11.567Z,49.1
2017-08-05T06:03:13.447Z,49.1
2017-08-05T06:04:14.921Z,49.2
2017-08-05T06:05:16.725Z,49
2017-08-05T06:06:18.526Z,49.3
2017-08-05T06:07:19.981Z,49.4
2017-08-05T06:08:21.787Z,49.1
2017-08-05T06:09:23.250Z,49
2017-08-05T06:10:25.382Z,49.6
2017-08-05T06:11:26.833Z,49.6
2017-08-05T06:12:28.305Z,49.1
2017-08-05T06:13:30.439Z,49.4
2017-08-05T06:14:32.576Z,49.4
2017-08-05T06:15:34.705Z,49.5
2017-08-05T06:16:36.508Z,49
2017-08-05T06:17:38.643Z,49.5
2017-08-05T06:18:40.441Z,49.4
2017-08-05T06:19:42.570Z,49.2
2017-08-05T06:20:44.019Z,49.2
2017-08-05T06:21:45.468Z,49.3
2017-08-05T06:22:47.019Z,49.9
2017-08-05T06:23:49.151Z,49.2
2017-08-05T06:24:51.288Z,49.1
2017-08-05T06:25:53.088Z,49.4
2017-08-05T06:26:55.223Z,49.2
2017-08-05T06:27:57.058Z,49.5
2017-08-05T06:28:58.529Z,49.4
2017-08-05T06:29:59.641Z,49.3
2017-08-05T06:31:00.772Z,49.4
2017-08-05T06:32:02.575Z,49.3
2017-08-05T06:33:04.708Z,49.2
2017-08-05T06:34:06.512Z,49.6
2017-08-05T06:35:08.315Z,49.5
2017-08-05T06:36:10.454Z,49.1
2017-08-05T06:37:12.589Z,49.5
2017-08-05T06:38:13.709Z,49.3
2017-08-05T06:39:15.485Z,49.5
2017-08-05T06:40:16.954Z,49.5
2017-08-05T06:41:18.402Z,49.5
2017-08-05T06:42:20.206Z,49.5
2017-08-05T06:43:21.647Z,49.3
2017-08-05T06:44:22.768Z,49.3
2017-08-05T06:45:24.212Z,49
2017-08-05T06:46:25.656Z,49.2
2017-08-05T06:47:27.790Z,49.7
2017-08-05T06:48:29.589Z,49
2017-08-05T06:49:31.391Z,49.5
2017-08-05T06:50:32.844Z,49.1
2017-08-05T06:51:34.310Z,49.3
2017-08-05T06:52:35.758Z,49.2
2017-08-05T06:53:37.887Z,49.1
2017-08-05T06:54:40.023Z,49.2
2017-08-05T06:55:42.160Z,49.2
2017-08-05T06:56:43.630Z,49.2
2017-08-05T06:57:45.760Z,49.3
2017-08-05T06:58:47.895Z,49.1
2017-08-05T06:59:49.364Z,49.7
2017-08-05T07:00:50.837Z,49.5
2017-08-05T07:01:52.645Z,49.1
2017-08-05T07:02:54.105Z,49.2
2017-08-05T07:03:55.569Z,49.1
2017-08-05T07:04:57.370Z,49.7
2017-08-05T07:05:59.501Z,49.1
2017-08-05T07:07:00.613Z,49.7
2017-08-05T07:08:02.745Z,49.4
2017-08-05T07:09:04.544Z,49.2
2017-08-05T07:10:06.013Z,49.2
2017-08-05T07:11:08.146Z,49.4
2017-08-05T07:12:09.945Z,49.8
2017-08-05T07:13:11.749Z,49.6
2017-08-05T07:14:13.882Z,49.3
2017-08-05T07:15:15.032Z,49.3
2017-08-05T07:16:17.161Z,49.6
2017-08-05T07:17:19.296Z,49.3
2017-08-05T07:18:21.430Z,49.3
2017-08-05T07:19:23.211Z,49.8
2017-08-05T07:20:25.012Z,49.3
2017-08-05T07:21:27.151Z,49.4
2017-08-05T07:22:28.957Z,49.5
2017-08-05T07:23:31.087Z,49.2
2017-08-05T07:24:32.529Z,49.5
2017-08-05T07:25:34.662Z,49.6
2017-08-05T07:26:36.462Z,49.2
2017-08-05T07:27:38.594Z,49.4
2017-08-05T07:28:40.729Z,49.7
2017-08-05T07:29:42.532Z,49.3
2017-08-05T07:30:44.664Z,49.6
2017-08-05T07:31:46.798Z,49.7
2017-08-05T07:32:48.929Z,49.2
2017-08-05T07:33:50.733Z,49.2
2017-08-05T07:34:52.517Z,49.2
2017-08-05T07:35:54.647Z,49.6
2017-08-05T07:36:56.118Z,49.2
2017-08-05T07:37:58.251Z,49.6
2017-08-05T07:39:00.384Z,49.2
2017-08-05T07:40:02.195Z,49.3
2017-08-05T07:41:04.316Z,49.3
2017-08-05T07:42:06.450Z,49.4
2017-08-05T07:43:08.249Z,49.3
2017-08-05T07:44:10.384Z,49.3
2017-08-05T07:45:12.514Z,49
2017-08-05T07:46:14.646Z,49.3
2017-08-05T07:47:16.786Z,49.3
2017-08-05T07:48:18.250Z,49.2
2017-08-05T07:49:19.714Z,49.3
2017-08-05T07:50:21.512Z,49
2017-08-05T07:51:23.642Z,49.3
2017-08-05T07:52:25.111Z,49.3
2017-08-05T07:53:26.911Z,49
2017-08-05T07:54:28.715Z,49.1
2017-08-05T07:55:30.499Z,49.3
2017-08-05T07:56:32.632Z,49.3
2017-08-05T07:57:34.768Z,49.3
2017-08-05T07:58:36.571Z,49.4
2017-08-05T07:59:38.376Z,49.2
2017-08-05T08:00:40.226Z,49.2
2017-08-05T08:01:42.359Z,49.3
2017-08-05T08:02:44.148Z,49.3
2017-08-05T08:03:45.952Z,49.3
2017-08-05T08:04:48.091Z,49.1
2017-08-05T08:05:49.894Z,49.7
2017-08-05T08:06:52.029Z,49.3
2017-08-05T08:07:54.203Z,49.4
2017-08-05T08:08:55.317Z,49.3
2017-08-05T08:09:57.124Z,49.2
2017-08-05T08:10:58.913Z,49.6
2017-08-05T08:12:01.042Z,49.4
2017-08-05T08:13:03.175Z,49.2
2017-08-05T08:14:04.956Z,49.1
2017-08-05T08:15:07.090Z,49.2
2017-08-05T08:16:09.274Z,49.1
2017-08-05T08:17:10.722Z,49.2
2017-08-05T08:18:12.523Z,49.1
2017-08-05T08:19:13.661Z,49.4
2017-08-05T08:20:15.462Z,49.4
2017-08-05T08:21:16.912Z,49.1
2017-08-05T08:22:18.354Z,49.3
2017-08-05T08:23:20.157Z,49.2
2017-08-05T08:24:22.288Z,49.2
2017-08-05T08:25:24.421Z,49.1
2017-08-05T08:26:26.223Z,49
2017-08-05T08:27:28.023Z,49.2
2017-08-05T08:28:29.827Z,49.7
2017-08-05T08:29:31.624Z,49.2
2017-08-05T08:30:33.753Z,49.3
2017-08-05T08:31:35.553Z,49.3
2017-08-05T08:32:37.355Z,49.9
2017-08-05T08:33:39.153Z,49.4
2017-08-05T08:34:41.287Z,49.1
2017-08-05T08:35:43.087Z,49.2
2017-08-05T08:36:44.885Z,49.7
2017-08-05T08:37:47.017Z,49.1
2017-08-05T08:38:48.465Z,49.4
2017-08-05T08:39:50.595Z,49.7
2017-08-05T08:40:52.396Z,49.2
2017-08-05T08:41:54.200Z,49.2
2017-08-05T08:42:56.332Z,49.1
2017-08-05T08:43:58.470Z,49.2
2017-08-05T08:45:00.271Z,49.3
2017-08-05T08:46:02.408Z,49.5
2017-08-05T08:47:04.541Z,49.3
2017-08-05T08:48:06.318Z,49.5
2017-08-05T08:49:08.123Z,49.2
2017-08-05T08:50:10.256Z,49.2
2017-08-05T08:51:12.389Z,49.2
2017-08-05T08:52:13.857Z,49.2
2017-08-05T08:53:15.330Z,49.3
2017-08-05T08:54:17.459Z,49
2017-08-05T08:55:19.265Z,49.3
2017-08-05T08:56:21.065Z,49.2
2017-08-05T08:57:22.848Z,49.3
2017-08-05T08:58:24.625Z,49.3
2017-08-05T08:59:26.761Z,49.2
2017-08-05T09:00:28.895Z,49.3
2017-08-05T09:01:31.024Z,49.2
2017-08-05T09:02:32.137Z,49.3
2017-08-05T09:03:33.941Z,49.2
2017-08-05T09:04:36.075Z,49.2
2017-08-05T09:05:37.883Z,49.3
2017-08-05T09:06:40.023Z,49.2
2017-08-05T09:07:41.824Z,49.1
2017-08-05T09:08:43.954Z,49.3
2017-08-05T09:09:46.086Z,49.1
2017-08-05T09:10:48.222Z,49
2017-08-05T09:11:50.356Z,49.2
2017-08-05T09:12:52.157Z,49.1
2017-08-05T09:13:53.604Z,49
2017-08-05T09:14:55.411Z,49.1
2017-08-05T09:15:57.209Z,49.3
2017-08-05T09:16:59.008Z,49.2
2017-08-05T09:18:01.198Z,49.5
2017-08-05T09:19:02.975Z,49.8
2017-08-05T09:20:04.782Z,49.4
2017-08-05T09:21:06.580Z,49.1
2017-08-05T09:22:08.710Z,49.1
2017-08-05T09:23:10.513Z,49.7
2017-08-05T09:24:12.314Z,49.1
2017-08-05T09:25:13.761Z,49.2
2017-08-05T09:26:15.891Z,49.6
2017-08-05T09:27:17.003Z,49.1
2017-08-05T09:28:18.806Z,49.6
2017-08-05T09:29:20.607Z,49.5
2017-08-05T09:30:22.739Z,49.2
2017-08-05T09:31:24.540Z,49.6
2017-08-05T09:32:26.674Z,49.6
2017-08-05T09:33:28.811Z,49.4
2017-08-05T09:34:30.281Z,49.4
2017-08-05T09:35:31.401Z,49.1
2017-08-05T09:36:33.180Z,49.4
2017-08-05T09:37:35.084Z,49.5
2017-08-05T09:38:36.529Z,49
2017-08-05T09:39:38.326Z,49.5
2017-08-05T09:40:40.462Z,49.3
2017-08-05T09:41:42.606Z,49.1
2017-08-05T09:42:44.378Z,49.3
2017-08-05T09:43:46.180Z,49.3
2017-08-05T09:44:47.969Z,49.2
2017-08-05T09:45:49.767Z,49.1
2017-08-05T09:46:51.902Z,49.1
2017-08-05T09:47:53.704Z,49.1
2017-08-05T09:48:55.154Z,49.2
2017-08-05T09:49:57.297Z,49.2
2017-08-05T09:50:59.099Z,49.2
2017-08-05T09:52:00.211Z,49
2017-08-05T09:53:01.994Z,49.3
2017-08-05T09:54:03.794Z,49.3
2017-08-05T09:55:05.927Z,49.1
2017-08-05T09:56:07.375Z,49.3
2017-08-05T09:57:09.154Z,49.2
2017-08-05T09:58:10.316Z,49.1
2017-08-05T09:59:12.449Z,49.1
2017-08-05T10:00:14.584Z,49.5
2017-08-05T10:01:16.385Z,49.4
2017-08-05T10:02:17.831Z,49.1
2017-08-05T10:03:19.968Z,49.1
2017-08-05T10:04:21.766Z,49.2
2017-08-05T10:05:23.907Z,49.3
2017-08-05T10:06:25.706Z,49.2
2017-08-05T10:07:26.822Z,49
2017-08-05T10:08:28.599Z,49.3
2017-08-05T10:09:30.374Z,49.4
2017-08-05T10:10:32.177Z,49.3
2017-08-05T10:11:34.310Z,49
2017-08-05T10:12:36.091Z,49.6
2017-08-05T10:13:38.229Z,49.3
2017-08-05T10:14:40.361Z,49.2
2017-08-05T10:15:42.493Z,49.7
2017-08-05T10:16:44.297Z,49.3
2017-08-05T10:17:46.100Z,49.2
2017-08-05T10:18:47.901Z,49.3
2017-08-05T10:19:50.033Z,49.2
2017-08-05T10:20:52.174Z,49.1
2017-08-05T10:21:53.975Z,49.2
2017-08-05T10:22:56.110Z,48.8
2017-08-05T10:23:58.247Z,49.3
2017-08-05T10:24:59.373Z,48.7
2017-08-05T10:26:01.508Z,49.2
2017-08-05T10:27:03.313Z,48.9
2017-08-05T10:28:05.445Z,48.9
2017-08-05T10:29:07.245Z,48.9
2017-08-05T10:30:08.385Z,48.4
2017-08-05T10:31:10.188Z,48.8
2017-08-05T10:32:12.320Z,48.7
2017-08-05T10:33:13.463Z,48.8
2017-08-05T10:34:15.268Z,49.1
2017-08-05T10:35:17.402Z,48.7
2017-08-05T10:36:19.208Z,48.3
2017-08-05T10:37:21.346Z,49.2
2017-08-05T10:38:23.149Z,49.1
2017-08-05T10:39:24.935Z,49.2
2017-08-05T10:40:26.719Z,48.9
2017-08-05T10:41:28.522Z,48.8
2017-08-05T10:42:29.969Z,48.4
2017-08-05T10:43:32.101Z,48.5
2017-08-05T10:44:33.880Z,48.6
2017-08-05T10:45:35.682Z,48.6
2017-08-05T10:46:37.492Z,48.6
2017-08-05T10:47:39.292Z,48.6
2017-08-05T10:48:41.096Z,48.7
2017-08-05T10:49:42.226Z,48.7
2017-08-05T10:50:44.361Z,49.2
2017-08-05T10:51:46.166Z,49
2017-08-05T10:52:47.947Z,48.8
2017-08-05T10:53:49.750Z,48.8
2017-08-05T10:54:51.551Z,49.1
2017-08-05T10:55:52.665Z,48.9
2017-08-05T10:56:54.463Z,48.9
2017-08-05T10:57:56.264Z,49.2
2017-08-05T10:58:57.733Z,48.9
2017-08-05T10:59:59.513Z,49.2
2017-08-05T11:01:00.962Z,49.1
2017-08-05T11:02:02.770Z,48.9
2017-08-05T11:03:04.569Z,48.9
2017-08-05T11:04:06.702Z,49.1
2017-08-05T11:05:08.174Z,49
2017-08-05T11:06:09.642Z,48.9
2017-08-05T11:07:11.091Z,48.9
2017-08-05T11:08:13.226Z,49.1
2017-08-05T11:09:15.029Z,48.9
2017-08-05T11:10:17.166Z,48.8
2017-08-05T11:11:19.296Z,49.1
2017-08-05T11:12:21.430Z,49.3
2017-08-05T11:13:23.562Z,49.3
2017-08-05T11:14:25.341Z,49.1
2017-08-05T11:15:27.477Z,49.2
2017-08-05T11:16:29.609Z,49.4
2017-08-05T11:17:31.746Z,49.1
2017-08-05T11:18:33.529Z,49.1
2017-08-05T11:19:35.337Z,49.3
2017-08-05T11:20:37.470Z,49.1
2017-08-05T11:21:39.275Z,49.3
2017-08-05T11:22:40.747Z,49.2
2017-08-05T11:23:42.883Z,49.2
2017-08-05T11:24:44.354Z,49.2
2017-08-05T11:25:45.822Z,49.2
2017-08-05T11:26:47.623Z,49.3
2017-08-05T11:27:49.424Z,49.3
2017-08-05T11:28:51.205Z,49.2
2017-08-05T11:29:52.320Z,49
2017-08-05T11:30:54.114Z,49.2
2017-08-05T11:31:55.914Z,49.2
2017-08-05T11:32:57.700Z,49.2
2017-08-05T11:33:59.471Z,49.2
2017-08-05T11:35:01.273Z,49.4
2017-08-05T11:36:03.053Z,49.4
2017-08-05T11:37:04.522Z,49.3
2017-08-05T11:38:05.637Z,49.5
2017-08-05T11:39:07.120Z,49.2
2017-08-05T11:40:09.250Z,49.5
2017-08-05T11:41:11.060Z,49.3
2017-08-05T11:42:12.864Z,49.2
2017-08-05T11:43:15.002Z,49.3
2017-08-05T11:44:16.814Z,49.8
2017-08-05T11:45:18.254Z,49.6
2017-08-05T11:46:20.036Z,49.9
2017-08-05T11:47:21.838Z,49.4
2017-08-05T11:48:23.972Z,49.2
2017-08-05T11:49:25.770Z,49.1
2017-08-05T11:50:27.573Z,49.1
2017-08-05T11:51:29.707Z,49.8
2017-08-05T11:52:31.505Z,49.2
2017-08-05T11:53:33.313Z,49.3
2017-08-05T11:54:34.780Z,49.2
2017-08-05T11:55:36.583Z,49.2
2017-08-05T11:56:38.382Z,49.3
2017-08-05T11:57:40.518Z,49.4
2017-08-05T11:58:42.315Z,49.2
2017-08-05T11:59:44.448Z,49.4
2017-08-05T12:00:46.254Z,49.2
2017-08-05T12:01:47.703Z,49.2
2017-08-05T12:02:49.838Z,49.2
2017-08-05T12:03:51.970Z,49.2
2017-08-05T12:04:53.752Z,49.2
2017-08-05T12:05:55.885Z,49.2
2017-08-05T12:06:57.678Z,49.3
2017-08-05T12:07:58.792Z,49.1
2017-08-05T12:09:00.259Z,49.1
2017-08-05T12:10:02.072Z,49.3
2017-08-05T12:11:04.203Z,49.3
2017-08-05T12:12:06.339Z,49.4
2017-08-05T12:13:07.476Z,49.2
2017-08-05T12:14:09.608Z,49.3
2017-08-05T12:15:11.411Z,49.1
2017-08-05T12:16:13.546Z,49.1
2017-08-05T12:17:14.662Z,49.1
2017-08-05T12:18:16.461Z,49.3
2017-08-05T12:19:18.244Z,49
2017-08-05T12:20:19.712Z,49.3
2017-08-05T12:21:21.848Z,49.3
2017-08-05T12:22:23.977Z,48.8
2017-08-05T12:23:25.781Z,49.3
2017-08-05T12:24:27.583Z,49.3
2017-08-05T12:25:29.719Z,49.2
2017-08-05T12:26:31.850Z,49.1
2017-08-05T12:27:33.983Z,49.5
2017-08-05T12:28:36.119Z,49.3
2017-08-05T12:29:38.256Z,49.3
2017-08-05T12:30:40.394Z,49.1
2017-08-05T12:31:42.195Z,49.3
2017-08-05T12:32:44.331Z,49.9
2017-08-05T12:33:46.134Z,49.6
2017-08-05T12:34:47.605Z,49.7
2017-08-05T12:35:49.407Z,49.4
2017-08-05T12:36:51.540Z,49.1
2017-08-05T12:37:52.660Z,49.3
2017-08-05T12:38:54.795Z,49.6
2017-08-05T12:39:56.924Z,49.5
2017-08-05T12:40:59.053Z,49.5
2017-08-05T12:42:00.839Z,49.2
2017-08-05T12:43:02.974Z,49.7
2017-08-05T12:44:05.104Z,49.7
2017-08-05T12:45:07.238Z,49.7
2017-08-05T12:46:09.372Z,49.5
2017-08-05T12:47:11.507Z,49.6
2017-08-05T12:48:13.314Z,49.3
2017-08-05T12:49:15.117Z,49.4
2017-08-05T12:50:16.599Z,49.2
2017-08-05T12:51:18.397Z,49.4
2017-08-05T12:52:20.528Z,49.3
2017-08-05T12:53:22.662Z,49.3
2017-08-05T12:54:24.443Z,49.1
2017-08-05T12:55:26.245Z,49.3
2017-08-05T12:56:28.046Z,48.8
2017-08-05T12:57:30.182Z,48.8
2017-08-05T12:58:31.393Z,48.8
2017-08-05T12:59:33.197Z,49.1
2017-08-05T13:00:35.006Z,49.1
2017-08-05T13:01:37.140Z,49.2
2017-08-05T13:02:38.944Z,49.2
2017-08-05T13:03:41.082Z,49.1
2017-08-05T13:04:43.213Z,49.2
2017-08-05T13:05:44.687Z,49.5
2017-08-05T13:06:46.819Z,49.1
2017-08-05T13:07:48.957Z,49.2
2017-08-05T13:08:50.803Z,49.3
2017-08-05T13:09:52.938Z,49.5
2017-08-05T13:10:55.071Z,49.2
2017-08-05T13:11:57.203Z,49.3
2017-08-05T13:12:58.984Z,49.2
2017-08-05T13:14:01.121Z,49.1
2017-08-05T13:15:02.572Z,49.3
2017-08-05T13:16:04.044Z,49.2
2017-08-05T13:17:06.175Z,49.2
2017-08-05T13:18:08.308Z,49.3
2017-08-05T13:19:10.089Z,49.2
2017-08-05T13:20:12.227Z,49.1
2017-08-05T13:21:14.359Z,48.9
2017-08-05T13:22:16.161Z,48.8
2017-08-05T13:23:17.632Z,48.9
2017-08-05T13:24:19.763Z,48.9
2017-08-05T13:25:21.237Z,48.9
2017-08-05T13:26:23.371Z,48.9
2017-08-05T13:27:25.505Z,48.9
2017-08-05T13:28:27.312Z,49.3
2017-08-05T13:29:29.448Z,49.3
2017-08-05T13:30:31.252Z,49.3
2017-08-05T13:31:33.049Z,49.2
2017-08-05T13:32:34.852Z,49.2
2017-08-05T13:33:36.984Z,49
2017-08-05T13:34:39.118Z,48.9
2017-08-05T13:35:41.252Z,48.9
2017-08-05T13:36:43.057Z,49.1
2017-08-05T13:37:45.190Z,49.2
2017-08-05T13:38:47.327Z,49.2
2017-08-05T13:39:49.138Z,48.8
2017-08-05T13:40:50.946Z,49
2017-08-05T13:41:52.750Z,49.2
2017-08-05T13:42:54.884Z,49.2
2017-08-05T13:43:56.363Z,49.3
2017-08-05T13:44:57.837Z,49
2017-08-05T13:45:59.640Z,49.1
2017-08-05T13:47:01.777Z,49.2